createdAt,value
2022-12-04T00:01:13.738Z,17.25
2022-12-04T00:03:41.350Z,16.67
2022-12-04T00:06:16.745Z,16.20
2022-12-04T00:08:45.203Z,16.60
2022-12-04T00:11:14.594Z,17.73
2022-12-04T00:13:42.579Z,16.92
2022-12-04T00:16:13.244Z,16.77
2022-12-04T00:18:40.844Z,16.85
2022-12-04T00:21:10.820Z,16.73
2022-12-04T00:23:39.048Z,16.70
2022-12-04T00:26:09.943Z,16.48
2022-12-04T00:28:37.489Z,18.08
2022-12-04T00:31:09.781Z,16.65
2022-12-04T00:33:37.441Z,15.98
2022-12-04T00:36:07.936Z,17.15
2022-12-04T00:38:35.781Z,17.58
2022-12-04T00:41:03.228Z,17.48
2022-12-04T00:43:31.760Z,18.17
2022-12-04T00:45:59.242Z,16.50
2022-12-04T00:48:27.081Z,16.52
2022-12-04T00:50:55.421Z,17.02
2022-12-04T00:53:22.736Z,18.67
2022-12-04T00:55:50.081Z,18.02
2022-12-04T00:58:17.479Z,18.10
2022-12-04T01:00:44.746Z,19.48
2022-12-04T01:03:12.251Z,18.73
2022-12-04T01:05:41.774Z,17.08
2022-12-04T01:08:10.537Z,17.98
2022-12-04T01:10:42.178Z,19.27
2022-12-04T01:13:09.598Z,17.60
2022-12-04T01:15:41.507Z,17.88
2022-12-04T01:18:09.223Z,19.80
2022-12-04T01:20:37.085Z,17.85
2022-12-04T01:23:04.611Z,18.27
2022-12-04T01:25:32.377Z,18.42
2022-12-04T01:28:00.772Z,18.45
2022-12-04T01:30:28.265Z,17.58
2022-12-04T01:32:55.499Z,19.13
2022-12-04T01:35:22.796Z,19.35
2022-12-04T01:37:50.004Z,17.92
2022-12-04T01:40:17.502Z,16.98
2022-12-04T01:42:44.764Z,18.88
2022-12-04T01:45:38.503Z,18.63
2022-12-04T01:48:15.700Z,16.90
2022-12-04T01:53:12.657Z,18.13
2022-12-04T01:55:40.584Z,19.40
2022-12-04T01:58:09.623Z,20.27
2022-12-04T02:00:36.892Z,21.27
2022-12-04T02:03:04.263Z,18.85
2022-12-04T02:05:31.520Z,20.83
2022-12-04T02:08:04.738Z,18.85
2022-12-04T02:10:55.526Z,18.83
2022-12-04T02:13:45.484Z,20.10
2022-12-04T02:16:36.813Z,18.35
2022-12-04T02:19:40.433Z,19.17
2022-12-04T02:22:24.072Z,16.92
2022-12-04T02:25:07.179Z,19.52
2022-12-04T02:27:40.262Z,16.05
2022-12-04T02:30:11.836Z,16.50
2022-12-04T02:32:45.243Z,17.35
2022-12-04T02:35:33.187Z,16.23
2022-12-04T02:38:11.050Z,17.38
2022-12-04T02:40:59.720Z,17.55
2022-12-04T02:43:39.499Z,17.27
2022-12-04T02:46:21.686Z,17.90
2022-12-04T02:48:53.447Z,18.95
2022-12-04T02:51:23.260Z,19.13
2022-12-04T02:53:56.056Z,17.65
2022-12-04T02:56:30.466Z,18.27
2022-12-04T02:59:06.984Z,18.95
2022-12-04T03:01:38.894Z,18.70
2022-12-04T03:04:06.426Z,19.95
2022-12-04T03:06:36.723Z,19.45
2022-12-04T03:09:11.093Z,19.48
2022-12-04T03:11:40.512Z,19.95
2022-12-04T03:14:19.078Z,18.25
2022-12-04T03:16:48.170Z,19.67
2022-12-04T03:19:28.044Z,20.77
2022-12-04T03:22:01.527Z,22.17
2022-12-04T03:24:38.658Z,23.63
2022-12-04T03:30:14.179Z,21.33
2022-12-04T03:32:44.213Z,21.77
2022-12-04T03:35:16.035Z,21.27
2022-12-04T03:38:12.606Z,22.33
2022-12-04T03:40:54.158Z,24.58
2022-12-04T03:43:39.998Z,22.30
2022-12-04T03:46:16.848Z,22.98
2022-12-04T03:48:47.582Z,23.90
2022-12-04T03:51:34.309Z,22.83
2022-12-04T03:54:12.001Z,23.80
2022-12-04T03:56:50.548Z,23.45
2022-12-04T03:59:30.283Z,23.13
2022-12-04T04:02:00.235Z,23.92
2022-12-04T04:04:39.641Z,22.75
2022-12-04T04:07:19.832Z,24.88
2022-12-04T04:09:49.620Z,25.00
2022-12-04T04:12:32.483Z,25.33
2022-12-04T04:15:28.389Z,26.13
2022-12-04T04:18:15.765Z,25.27
2022-12-04T04:21:06.848Z,24.88
2022-12-04T04:23:57.828Z,24.70
2022-12-04T04:26:27.720Z,23.63
2022-12-04T04:28:55.042Z,23.45
2022-12-04T04:31:39.020Z,25.25
2022-12-04T04:34:20.854Z,23.55
2022-12-04T04:37:01.416Z,23.10
2022-12-04T04:39:39.780Z,26.58
2022-12-04T04:42:13.721Z,24.35
2022-12-04T04:44:51.928Z,25.30
2022-12-04T04:47:30.354Z,26.33
2022-12-04T04:50:01.736Z,27.55
2022-12-04T04:52:30.136Z,25.63
2022-12-04T04:55:00.509Z,26.23
2022-12-04T04:57:33.928Z,25.38
2022-12-04T05:00:01.848Z,24.88
2022-12-04T05:02:29.256Z,23.52
2022-12-04T05:04:56.619Z,25.60
2022-12-04T05:07:23.858Z,25.00
2022-12-04T05:09:51.111Z,25.02
2022-12-04T05:12:18.296Z,24.65
2022-12-04T05:14:47.576Z,24.92
2022-12-04T05:17:15.155Z,25.08
2022-12-04T05:19:55.005Z,25.08
2022-12-04T05:22:34.584Z,25.70
2022-12-04T05:25:03.559Z,27.83
2022-12-04T05:27:31.847Z,23.23
2022-12-04T05:29:59.703Z,24.17
2022-12-04T05:32:28.899Z,25.25
2022-12-04T05:34:56.849Z,25.77
2022-12-04T05:37:24.933Z,26.83
2022-12-04T05:39:52.503Z,23.52
2022-12-04T05:42:20.104Z,27.73
2022-12-04T05:44:49.001Z,27.08
2022-12-04T05:47:16.565Z,25.52
2022-12-04T05:49:43.848Z,25.95
2022-12-04T05:52:11.149Z,26.33
2022-12-04T05:54:38.746Z,26.60
2022-12-04T05:57:06.425Z,27.75
2022-12-04T05:59:33.929Z,24.17
2022-12-04T06:02:01.188Z,27.42
2022-12-04T06:04:28.824Z,26.38
2022-12-04T06:06:56.025Z,26.08
2022-12-04T06:09:23.388Z,25.52
2022-12-04T06:11:50.613Z,26.85
2022-12-04T06:14:17.879Z,28.33
2022-12-04T06:16:46.465Z,24.15
2022-12-04T06:19:17.536Z,27.33
2022-12-04T06:21:47.135Z,26.58
2022-12-04T06:24:24.732Z,24.63
2022-12-04T06:27:26.171Z,25.95
2022-12-04T06:29:44.570Z,27.63
2022-12-04T06:32:15.230Z,26.13
2022-12-04T06:34:49.243Z,26.60
2022-12-04T06:37:16.492Z,26.40
2022-12-04T06:39:43.846Z,26.45
2022-12-04T06:42:11.035Z,26.67
2022-12-04T06:44:38.250Z,27.65
2022-12-04T06:47:05.827Z,28.50
2022-12-04T06:49:33.034Z,21.50
2022-12-04T06:52:00.493Z,26.88
2022-12-04T06:54:27.870Z,27.60
2022-12-04T06:56:55.284Z,28.55
2022-12-04T06:59:22.529Z,26.95
2022-12-04T07:01:49.841Z,26.20
2022-12-04T07:04:17.190Z,26.95
2022-12-04T07:06:44.417Z,28.02
2022-12-04T07:09:15.745Z,24.17
2022-12-04T07:11:43.956Z,26.85
2022-12-04T07:14:13.138Z,25.95
2022-12-04T07:16:42.676Z,24.98
2022-12-04T07:19:12.421Z,24.73
2022-12-04T07:21:40.585Z,23.05
2022-12-04T07:24:08.305Z,25.58
2022-12-04T07:26:35.524Z,21.27
2022-12-04T07:29:02.764Z,23.40
2022-12-04T07:31:30.426Z,26.05
2022-12-04T07:33:58.524Z,22.05
2022-12-04T07:36:26.556Z,24.50
2022-12-04T07:38:56.409Z,24.63
2022-12-04T07:41:23.926Z,25.15
2022-12-04T07:43:51.304Z,23.70
2022-12-04T07:46:22.158Z,23.83
2022-12-04T07:48:49.498Z,24.88
2022-12-04T07:51:18.377Z,27.25
2022-12-04T07:53:46.270Z,24.38
2022-12-04T07:56:14.659Z,22.77
2022-12-04T07:58:42.585Z,23.00
2022-12-04T08:01:13.378Z,25.42
2022-12-04T08:03:47.478Z,23.45
2022-12-04T08:06:17.148Z,25.58
2022-12-04T08:08:44.423Z,26.25
2022-12-04T08:11:14.265Z,23.42
2022-12-04T08:13:41.856Z,24.77
2022-12-04T08:16:10.828Z,23.40
2022-12-04T08:18:38.563Z,23.02
2022-12-04T08:21:11.161Z,22.48
2022-12-04T08:23:40.203Z,23.75
2022-12-04T08:26:08.036Z,21.83
2022-12-04T08:28:35.411Z,21.52
2022-12-04T08:31:14.533Z,21.15
2022-12-04T08:33:45.472Z,21.25
2022-12-04T08:36:17.940Z,20.40
2022-12-04T08:38:45.686Z,22.23
2022-12-04T08:41:15.533Z,21.63
2022-12-04T08:43:43.021Z,18.35
2022-12-04T08:46:13.352Z,18.75
2022-12-04T08:48:40.845Z,17.70
2022-12-04T08:51:13.003Z,17.15
2022-12-04T08:53:40.443Z,20.30
2022-12-04T08:56:07.920Z,17.98
2022-12-04T08:58:35.216Z,19.00
2022-12-04T09:01:14.808Z,19.00
2022-12-04T09:03:42.993Z,18.00
2022-12-04T09:06:12.304Z,16.38
2022-12-04T09:08:39.789Z,17.63
2022-12-04T09:11:09.742Z,16.83
2022-12-04T09:13:37.461Z,17.55
2022-12-04T09:16:07.081Z,17.33
2022-12-04T09:18:36.267Z,17.42
2022-12-04T09:21:10.237Z,16.40
2022-12-04T09:23:38.465Z,17.92
2022-12-04T09:26:15.841Z,16.85
2022-12-04T09:28:43.061Z,18.38
2022-12-04T09:31:10.319Z,17.50
2022-12-04T09:33:37.631Z,18.58
2022-12-04T09:36:05.277Z,17.15
2022-12-04T09:38:32.569Z,18.38
2022-12-04T09:41:27.634Z,17.45
2022-12-04T09:44:03.301Z,18.33
2022-12-04T09:46:41.040Z,15.68
2022-12-04T09:49:17.238Z,16.90
2022-12-04T09:51:45.173Z,18.73
2022-12-04T09:54:23.796Z,16.70
2022-12-04T09:57:36.961Z,18.02
2022-12-04T10:00:06.406Z,18.08
2022-12-04T10:02:40.607Z,19.65
2022-12-04T10:05:21.517Z,19.73
2022-12-04T10:08:05.997Z,18.27
2022-12-04T10:10:42.387Z,18.85
2022-12-04T10:13:38.900Z,17.73
2022-12-04T10:16:38.577Z,18.50
2022-12-04T10:19:36.606Z,20.45
2022-12-04T10:22:10.108Z,18.48
2022-12-04T10:24:52.847Z,20.80
2022-12-04T10:27:41.909Z,20.63
2022-12-04T10:30:27.326Z,20.75
2022-12-04T10:33:01.917Z,20.63
2022-12-04T10:35:31.463Z,21.20
2022-12-04T10:38:11.204Z,23.38
2022-12-04T10:40:53.964Z,20.48
2022-12-04T10:43:39.728Z,22.00
2022-12-04T10:46:12.659Z,19.38
2022-12-04T10:48:41.502Z,21.20
2022-12-04T10:51:17.641Z,21.58
2022-12-04T10:53:46.396Z,22.58
2022-12-04T10:56:19.485Z,21.13
2022-12-04T10:59:02.709Z,19.50
2022-12-04T11:01:32.222Z,19.95
2022-12-04T11:04:19.781Z,20.95
2022-12-04T11:06:49.916Z,18.58
2022-12-04T11:09:23.522Z,19.88
2022-12-04T11:11:51.772Z,18.42
2022-12-04T11:14:22.336Z,17.65
2022-12-04T11:17:00.165Z,17.13
2022-12-04T11:19:30.544Z,16.00
2022-12-04T11:22:04.637Z,18.05
2022-12-04T11:24:40.058Z,18.65
2022-12-04T11:27:16.394Z,16.92
2022-12-04T11:29:45.713Z,11.50
2022-12-04T11:32:44.345Z,15.25
2022-12-04T11:35:26.656Z,16.15
2022-12-04T11:38:01.061Z,17.75
2022-12-04T11:40:29.585Z,16.75
2022-12-04T11:43:14.143Z,16.02
2022-12-04T11:45:42.377Z,15.30
2022-12-04T11:48:15.605Z,16.40
2022-12-04T11:51:04.732Z,15.85
2022-12-04T11:53:44.658Z,14.10
2022-12-04T11:56:29.452Z,14.60
2022-12-04T11:59:02.428Z,15.40
2022-12-04T12:01:38.923Z,14.52
2022-12-04T12:04:37.453Z,15.43
2022-12-04T12:07:30.366Z,15.85
2022-12-04T12:10:09.800Z,15.50
2022-12-04T12:13:10.800Z,14.23
2022-12-04T12:16:08.274Z,15.45
2022-12-04T12:19:08.467Z,14.88
2022-12-04T12:22:06.780Z,13.85
2022-12-04T12:24:55.183Z,16.08
2022-12-04T12:27:50.404Z,15.25
2022-12-04T12:30:21.475Z,16.35
2022-12-04T12:33:03.359Z,16.40
2022-12-04T12:35:40.061Z,17.48
2022-12-04T12:38:22.641Z,17.13
2022-12-04T12:40:58.592Z,16.00
2022-12-04T12:43:41.046Z,17.40
2022-12-04T12:46:13.029Z,17.08
2022-12-04T12:49:16.459Z,17.30
2022-12-04T12:51:51.360Z,18.88
2022-12-04T12:54:36.588Z,19.15
2022-12-04T12:57:22.704Z,19.40
2022-12-04T12:59:55.476Z,18.77
2022-12-04T13:02:47.277Z,19.25
2022-12-04T13:05:20.475Z,20.60
2022-12-04T13:07:53.356Z,19.58
2022-12-04T13:10:29.251Z,18.67
2022-12-04T13:13:04.676Z,17.48
2022-12-04T13:15:44.649Z,18.13
2022-12-04T13:18:25.107Z,19.70
2022-12-04T13:20:57.016Z,19.48
2022-12-04T13:23:44.314Z,18.83
2022-12-04T13:26:49.725Z,16.92
2022-12-04T13:29:20.217Z,18.27
2022-12-04T13:32:28.965Z,19.38
2022-12-04T13:37:54.091Z,18.17
2022-12-04T13:40:31.186Z,17.80
2022-12-04T13:45:44.555Z,17.25
2022-12-04T13:48:12.592Z,17.45
2022-12-04T13:50:40.652Z,17.10
2022-12-04T13:53:32.239Z,16.92
2022-12-04T13:56:04.458Z,15.60
2022-12-04T13:58:36.361Z,16.15
2022-12-04T14:01:22.256Z,15.77
2022-12-04T14:03:59.381Z,16.58
2022-12-04T14:06:36.758Z,14.60
2022-12-04T14:09:08.421Z,15.23
2022-12-04T14:11:48.095Z,14.88
2022-12-04T14:14:33.273Z,15.40
2022-12-04T14:17:01.037Z,14.68
2022-12-04T14:19:30.800Z,14.95
2022-12-04T14:21:58.771Z,14.50
2022-12-04T14:24:37.983Z,12.68
2022-12-04T14:27:42.223Z,15.27
2022-12-04T14:30:25.239Z,15.30
2022-12-04T14:33:05.610Z,14.25
2022-12-04T14:35:33.637Z,16.70
2022-12-04T14:38:03.805Z,17.13
2022-12-04T14:40:38.980Z,17.00
2022-12-04T14:43:13.365Z,15.65
2022-12-04T14:46:06.859Z,17.40
2022-12-04T14:48:44.820Z,17.33
2022-12-04T14:51:18.817Z,17.95
2022-12-04T14:53:54.048Z,17.15
2022-12-04T14:56:30.793Z,19.02
2022-12-04T14:58:59.096Z,16.60
2022-12-04T15:01:32.748Z,16.90
2022-12-04T15:04:13.642Z,17.35
2022-12-04T15:06:40.989Z,15.65
2022-12-04T15:09:35.305Z,18.67
2022-12-04T15:12:35.173Z,18.42
2022-12-04T15:15:28.320Z,17.83
2022-12-04T15:18:14.961Z,15.43
2022-12-04T15:20:56.745Z,17.23
2022-12-04T15:23:41.393Z,17.85
2022-12-04T15:26:16.742Z,17.08
2022-12-04T15:29:00.338Z,16.23
2022-12-04T15:31:33.021Z,15.25
2022-12-04T15:34:08.916Z,15.55
2022-12-04T15:36:48.157Z,13.93
2022-12-04T15:39:21.537Z,11.68
2022-12-04T15:41:49.428Z,13.70
2022-12-04T15:45:01.507Z,13.27
2022-12-04T15:47:32.825Z,13.38
2022-12-04T15:50:21.915Z,12.63
2022-12-04T15:52:50.286Z,14.48
2022-12-04T15:55:19.179Z,13.23
2022-12-04T15:57:53.893Z,13.23
2022-12-04T16:00:40.725Z,13.57
2022-12-04T16:03:32.217Z,14.20
2022-12-04T16:06:06.974Z,14.65
2022-12-04T16:08:37.573Z,13.02
2022-12-04T16:11:22.724Z,13.35
2022-12-04T16:14:01.757Z,11.30
2022-12-04T16:16:29.461Z,13.63
2022-12-04T16:18:57.108Z,13.80
2022-12-04T16:21:30.390Z,13.80
2022-12-04T16:24:02.425Z,14.43
2022-12-04T16:26:29.813Z,15.15
2022-12-04T16:28:57.297Z,14.63
2022-12-04T16:31:25.485Z,16.02
2022-12-04T16:33:53.040Z,17.02
2022-12-04T16:36:20.272Z,14.65
2022-12-04T16:38:47.508Z,15.63
2022-12-04T16:41:17.262Z,15.32
2022-12-04T16:43:45.082Z,14.93
2022-12-04T16:46:15.051Z,14.88
2022-12-04T16:48:43.172Z,15.07
2022-12-04T16:51:21.511Z,15.40
2022-12-04T16:53:50.240Z,14.52
2022-12-04T16:56:18.149Z,14.45
2022-12-04T16:58:45.447Z,15.70
2022-12-04T17:01:23.336Z,14.48
2022-12-04T17:03:51.101Z,14.82
2022-12-04T17:06:18.726Z,13.52
2022-12-04T17:08:46.180Z,14.60
2022-12-04T17:11:15.232Z,14.20
2022-12-04T17:13:42.759Z,13.73
2022-12-04T17:16:14.063Z,14.18
2022-12-04T17:18:43.123Z,14.95
2022-12-04T17:21:11.967Z,15.77
2022-12-04T17:23:40.194Z,15.38
2022-12-04T17:26:10.143Z,14.80
2022-12-04T17:28:37.872Z,15.13
2022-12-04T17:31:12.647Z,13.20
2022-12-04T17:33:39.961Z,13.77
2022-12-04T17:36:17.833Z,15.80
2022-12-04T17:38:45.181Z,16.60
2022-12-04T17:41:14.084Z,15.20
2022-12-04T17:43:42.713Z,14.02
2022-12-04T17:46:20.397Z,15.07
2022-12-04T17:48:48.597Z,15.50
2022-12-04T17:51:23.657Z,15.52
2022-12-04T17:53:51.645Z,14.50
2022-12-04T17:56:21.692Z,14.75
2022-12-04T17:58:49.660Z,14.50
2022-12-04T18:01:20.090Z,15.48
2022-12-04T18:03:58.815Z,14.75
2022-12-04T18:06:28.889Z,15.15
2022-12-04T18:08:56.646Z,12.48
2022-12-04T18:11:26.104Z,14.65
2022-12-04T18:13:59.512Z,14.13
2022-12-04T18:16:28.694Z,17.02
2022-12-04T18:18:57.194Z,15.55
2022-12-04T18:21:24.967Z,15.27
2022-12-04T18:23:52.654Z,15.45
2022-12-04T18:26:22.305Z,15.82
2022-12-04T18:28:49.878Z,15.98
2022-12-04T18:31:19.011Z,15.90
2022-12-04T18:33:46.725Z,16.77
2022-12-04T18:36:20.061Z,16.75
2022-12-04T18:38:52.360Z,15.10
2022-12-04T18:41:19.657Z,15.55
2022-12-04T18:43:46.897Z,15.50
2022-12-04T18:46:16.060Z,16.17
2022-12-04T18:48:44.675Z,15.77
2022-12-04T18:51:23.139Z,17.60
2022-12-04T18:53:51.923Z,17.52
2022-12-04T18:56:19.602Z,17.83
2022-12-04T18:58:47.156Z,16.92
2022-12-04T19:01:21.079Z,16.25
2022-12-04T19:03:48.620Z,16.55
2022-12-04T19:06:15.886Z,14.45
2022-12-04T19:08:43.729Z,15.98
2022-12-04T19:11:13.821Z,17.40
2022-12-04T19:13:41.906Z,17.33
2022-12-04T19:16:14.814Z,17.25
2022-12-04T19:18:45.048Z,18.33
2022-12-04T19:21:16.088Z,18.42
2022-12-04T19:23:48.571Z,18.65
2022-12-04T19:26:15.801Z,16.88
2022-12-04T19:28:43.055Z,15.45
2022-12-04T19:31:18.835Z,16.90
2022-12-04T19:33:46.426Z,18.75
2022-12-04T19:36:14.693Z,16.42
2022-12-04T19:38:42.656Z,16.25
2022-12-04T19:41:12.986Z,16.23
2022-12-04T19:43:44.863Z,15.85
2022-12-04T19:46:14.222Z,14.63
2022-12-04T19:48:41.879Z,15.70
2022-12-04T19:51:12.103Z,14.68
2022-12-04T19:53:41.297Z,14.10
2022-12-04T19:56:12.449Z,13.85
2022-12-04T19:58:40.016Z,14.43
2022-12-04T20:01:10.185Z,12.20
2022-12-04T20:03:37.444Z,13.68
2022-12-04T20:06:10.445Z,12.43
2022-12-04T20:08:38.502Z,13.82
2022-12-04T20:11:08.042Z,14.32
2022-12-04T20:13:36.236Z,14.20
2022-12-04T20:16:09.285Z,13.55
2022-12-04T20:18:38.412Z,14.43
2022-12-04T20:21:10.950Z,14.90
2022-12-04T20:23:38.794Z,12.98
2022-12-04T20:26:08.856Z,15.30
2022-12-04T20:28:36.545Z,14.43
2022-12-04T20:31:22.633Z,16.30
2022-12-04T20:33:52.555Z,14.98
2022-12-04T20:36:21.921Z,14.32
2022-12-04T20:38:51.176Z,15.68
2022-12-04T20:41:18.991Z,14.38
2022-12-04T20:43:47.576Z,14.73
2022-12-04T20:46:23.823Z,14.88
2022-12-04T20:48:53.424Z,14.88
2022-12-04T20:51:24.092Z,14.98
2022-12-04T20:53:52.620Z,15.88
2022-12-04T20:56:21.811Z,14.07
2022-12-04T20:58:49.136Z,16.00
2022-12-04T21:01:18.551Z,16.17
2022-12-04T21:03:46.871Z,16.55
2022-12-04T21:06:31.034Z,15.30
2022-12-04T21:09:05.803Z,16.20
2022-12-04T21:11:36.328Z,15.68
2022-12-04T21:14:30.317Z,15.25
2022-12-04T21:16:58.169Z,16.70
2022-12-04T21:19:26.034Z,18.25
2022-12-04T21:21:54.036Z,18.00
2022-12-04T21:24:23.336Z,19.45
2022-12-04T21:26:50.809Z,17.48
2022-12-04T21:29:18.054Z,18.48
2022-12-04T21:31:45.477Z,18.23
2022-12-04T21:34:14.933Z,18.27
2022-12-04T21:36:42.283Z,17.33
2022-12-04T21:39:10.646Z,19.20
2022-12-04T21:41:56.581Z,17.70
2022-12-04T21:44:23.825Z,18.45
2022-12-04T21:46:51.194Z,19.13
2022-12-04T21:49:19.580Z,18.35
2022-12-04T21:52:02.567Z,16.67
2022-12-04T21:54:30.083Z,18.40
2022-12-04T21:56:57.910Z,18.27
2022-12-04T21:59:26.043Z,17.17
2022-12-04T22:01:54.203Z,20.30
2022-12-04T22:04:22.008Z,20.05
2022-12-04T22:06:49.739Z,18.70
2022-12-04T22:09:17.337Z,19.02
2022-12-04T22:11:44.735Z,19.30
2022-12-04T22:14:12.739Z,18.23
2022-12-04T22:16:42.632Z,18.90
2022-12-04T22:19:12.295Z,18.95
2022-12-04T22:21:40.056Z,17.27
2022-12-04T22:24:07.954Z,17.83
2022-12-04T22:26:35.142Z,18.08
2022-12-04T22:29:11.261Z,17.85
2022-12-04T22:31:50.299Z,17.75
2022-12-04T22:34:17.571Z,18.13
2022-12-04T22:36:44.770Z,18.40
2022-12-04T22:39:12.089Z,19.52
2022-12-04T22:41:39.855Z,18.95
2022-12-04T22:44:07.072Z,18.77
2022-12-04T22:46:34.533Z,17.73
2022-12-04T22:49:01.750Z,18.33
2022-12-04T22:51:29.027Z,21.20
2022-12-04T22:53:58.080Z,18.00
2022-12-04T22:56:30.539Z,19.27
2022-12-04T22:58:59.272Z,19.48
2022-12-04T23:01:29.354Z,19.52
2022-12-04T23:03:57.126Z,20.08
2022-12-04T23:06:26.413Z,18.83
2022-12-04T23:08:58.816Z,22.58
2022-12-04T23:11:27.013Z,20.95
2022-12-04T23:14:00.181Z,22.17
2022-12-04T23:16:31.308Z,21.42
2022-12-04T23:18:58.727Z,21.67
2022-12-04T23:21:27.721Z,23.23
2022-12-04T23:23:56.001Z,21.83
2022-12-04T23:26:26.236Z,21.77
2022-12-04T23:28:54.993Z,21.48
2022-12-04T23:31:23.046Z,19.23
2022-12-04T23:33:50.585Z,20.33
2022-12-04T23:36:17.795Z,20.08
2022-12-04T23:38:45.369Z,22.65
2022-12-04T23:41:15.991Z,21.13
2022-12-04T23:43:44.137Z,21.63
2022-12-04T23:46:12.936Z,22.27
2022-12-04T23:48:41.642Z,21.88
2022-12-04T23:51:10.105Z,21.92
2022-12-04T23:53:37.647Z,22.55
2022-12-04T23:56:08.294Z,19.60
2022-12-04T23:58:36.742Z,21.05
